createdAt,value
2015-07-07T00:00:01.697Z,0
2015-07-07T00:00:19.916Z,0
2015-07-07T00:00:38.182Z,0
2015-07-07T00:00:56.404Z,0
2015-07-07T00:01:14.638Z,0
2015-07-07T00:01:32.888Z,0
2015-07-07T00:01:51.124Z,0
2015-07-07T00:02:09.359Z,0
2015-07-07T00:02:27.593Z,0
2015-07-07T00:02:45.827Z,0
2015-07-07T00:03:04.064Z,0
2015-07-07T00:03:22.298Z,0
2015-07-07T00:03:40.533Z,0
2015-07-07T00:03:58.769Z,0
2015-07-07T00:04:17.003Z,0
2015-07-07T00:04:35.238Z,0
2015-07-07T00:04:53.474Z,0
2015-07-07T00:05:11.708Z,0
2015-07-07T00:05:29.958Z,0
2015-07-07T00:05:48.177Z,0
2015-07-07T00:06:06.414Z,0
2015-07-07T00:06:24.664Z,0
2015-07-07T00:06:42.898Z,0
2015-07-07T00:07:01.133Z,0
2015-07-07T00:07:19.368Z,0
2015-07-07T00:07:37.602Z,0
2015-07-07T00:07:55.838Z,0
2015-07-07T00:08:14.073Z,0
2015-07-07T00:08:32.323Z,0
2015-07-07T00:08:50.557Z,0
2015-07-07T00:09:08.795Z,0
2015-07-07T00:09:27.029Z,0
2015-07-07T00:09:45.279Z,0
2015-07-07T00:10:03.515Z,0
2015-07-07T00:10:21.750Z,0
2015-07-07T00:10:39.984Z,0
2015-07-07T00:10:58.219Z,0
2015-07-07T00:11:16.454Z,0
2015-07-07T00:11:34.688Z,0
2015-07-07T00:11:52.923Z,0
2015-07-07T00:12:11.175Z,0
2015-07-07T00:12:29.409Z,0
2015-07-07T00:12:47.643Z,0
2015-07-07T00:13:05.880Z,0
2015-07-07T00:13:24.114Z,0
2015-07-07T00:13:42.348Z,0
2015-07-07T00:14:00.585Z,0
2015-07-07T00:14:18.819Z,0
2015-07-07T00:14:37.054Z,0
2015-07-07T00:14:55.288Z,0
2015-07-07T00:15:13.524Z,0
2015-07-07T00:15:31.774Z,0
2015-07-07T00:15:50.009Z,0
2015-07-07T00:16:08.246Z,0
2015-07-07T00:16:26.480Z,0
2015-07-07T00:16:44.730Z,0
2015-07-07T00:17:02.965Z,0
2015-07-07T00:17:21.200Z,0
2015-07-07T00:17:39.450Z,0
2015-07-07T00:17:57.700Z,0
2015-07-07T00:18:15.921Z,0
2015-07-07T00:18:34.155Z,0
2015-07-07T00:18:52.390Z,0
2015-07-07T00:19:10.624Z,0
2015-07-07T00:19:28.876Z,0
2015-07-07T00:19:47.126Z,0
2015-07-07T00:20:05.360Z,0
2015-07-07T00:20:23.598Z,0
2015-07-07T00:20:41.832Z,0
2015-07-07T00:21:00.082Z,0
2015-07-07T00:21:18.317Z,0
2015-07-07T00:21:36.553Z,0
2015-07-07T00:21:54.803Z,0
2015-07-07T00:22:13.037Z,0
2015-07-07T00:22:31.273Z,0
2015-07-07T00:22:49.523Z,0
2015-07-07T00:23:07.773Z,0
2015-07-07T00:23:26.038Z,0
2015-07-07T00:23:44.244Z,0
2015-07-07T00:24:02.479Z,0
2015-07-07T00:24:20.713Z,0
2015-07-07T00:24:38.964Z,0
2015-07-07T00:24:57.199Z,0
2015-07-07T00:25:15.433Z,0
2015-07-07T00:25:33.670Z,0
2015-07-07T00:25:51.920Z,0
2015-07-07T00:26:10.155Z,0
2015-07-07T00:26:28.389Z,0
2015-07-07T00:26:46.624Z,0
2015-07-07T00:27:04.859Z,0
2015-07-07T00:27:23.093Z,0
2015-07-07T00:27:41.330Z,0
2015-07-07T00:27:59.564Z,0
2015-07-07T00:28:17.798Z,0
2015-07-07T00:28:36.036Z,0
2015-07-07T00:28:54.270Z,0
2015-07-07T00:29:12.504Z,0
2015-07-07T00:29:30.754Z,0
2015-07-07T00:29:48.990Z,0
2015-07-07T00:30:07.240Z,0
2015-07-07T00:30:25.474Z,0
2015-07-07T00:30:43.726Z,0
2015-07-07T00:31:01.961Z,0
2015-07-07T00:31:20.195Z,0
2015-07-07T00:31:38.431Z,0
2015-07-07T00:31:56.666Z,0
2015-07-07T00:32:14.900Z,0
2015-07-07T00:32:33.134Z,0
2015-07-07T00:32:51.386Z,0
2015-07-07T00:33:09.621Z,0
2015-07-07T00:33:27.855Z,0
2015-07-07T00:33:46.092Z,0
2015-07-07T00:34:04.326Z,0
2015-07-07T00:34:22.560Z,0
2015-07-07T00:34:40.797Z,0
2015-07-07T00:34:59.047Z,0
2015-07-07T00:35:17.281Z,0
2015-07-07T00:35:35.515Z,0
2015-07-07T00:35:53.752Z,0
2015-07-07T00:36:12.002Z,0
2015-07-07T00:36:30.236Z,0
2015-07-07T00:36:48.473Z,0
2015-07-07T00:37:06.707Z,0
2015-07-07T00:37:24.941Z,0
2015-07-07T00:37:43.177Z,0
2015-07-07T00:38:01.411Z,0
2015-07-07T00:38:19.645Z,0
2015-07-07T00:38:37.880Z,0
2015-07-07T00:38:56.117Z,0
2015-07-07T00:39:14.367Z,0
2015-07-07T00:39:32.602Z,0
2015-07-07T00:39:50.851Z,0
2015-07-07T00:40:09.085Z,0
2015-07-07T00:40:27.320Z,0
2015-07-07T00:40:45.570Z,0
2015-07-07T00:41:03.854Z,0
2015-07-07T00:41:22.088Z,0
2015-07-07T00:41:40.323Z,0
2015-07-07T00:41:58.601Z,0
2015-07-07T00:42:16.836Z,0
2015-07-07T00:42:35.070Z,0
2015-07-07T00:42:53.320Z,0
2015-07-07T00:43:11.604Z,0
2015-07-07T00:43:29.839Z,0
2015-07-07T00:43:48.089Z,0
2015-07-07T00:44:06.367Z,0
2015-07-07T00:44:24.601Z,0
2015-07-07T00:44:42.836Z,0
2015-07-07T00:45:01.070Z,0
2015-07-07T00:45:19.333Z,0
2015-07-07T00:45:37.567Z,0
2015-07-07T00:45:55.801Z,0
2015-07-07T00:46:14.053Z,0
2015-07-07T00:46:32.287Z,0
2015-07-07T00:46:50.521Z,0
2015-07-07T00:47:08.772Z,0
2015-07-07T00:47:27.006Z,0
2015-07-07T00:47:45.256Z,0
2015-07-07T00:48:03.491Z,0
2015-07-07T00:48:21.742Z,0
2015-07-07T00:48:39.976Z,0
2015-07-07T00:48:58.211Z,0
2015-07-07T00:49:16.479Z,0
2015-07-07T00:49:34.713Z,0
2015-07-07T00:49:52.947Z,0
2015-07-07T00:50:11.192Z,0
2015-07-07T00:50:29.442Z,0
2015-07-07T00:50:47.676Z,0
2015-07-07T00:51:05.911Z,0
2015-07-07T00:51:24.153Z,0
2015-07-07T00:51:42.387Z,0
2015-07-07T00:52:00.622Z,0
2015-07-07T00:52:18.879Z,0
2015-07-07T00:52:37.097Z,0
2015-07-07T00:52:55.347Z,0
2015-07-07T00:53:13.574Z,0
2015-07-07T00:53:31.824Z,0
2015-07-07T00:53:50.059Z,0
2015-07-07T00:54:08.309Z,0
2015-07-07T00:54:26.550Z,0
2015-07-07T00:54:44.784Z,0
2015-07-07T00:55:03.019Z,0
2015-07-07T00:55:21.273Z,0
2015-07-07T00:55:39.507Z,0
2015-07-07T00:55:57.741Z,0
2015-07-07T00:56:15.981Z,0
2015-07-07T00:56:34.231Z,0
2015-07-07T00:56:52.465Z,0
2015-07-07T00:57:10.715Z,0
2015-07-07T00:57:28.953Z,0
2015-07-07T00:57:47.187Z,0
2015-07-07T00:58:05.437Z,0
2015-07-07T00:58:23.660Z,0
2015-07-07T00:58:41.894Z,0
2015-07-07T00:59:00.128Z,0
2015-07-07T00:59:18.363Z,0
2015-07-07T00:59:36.602Z,0
2015-07-07T00:59:54.837Z,0
2015-07-07T01:00:13.071Z,0
2015-07-07T01:00:31.308Z,0
2015-07-07T01:00:49.543Z,0
2015-07-07T01:01:07.777Z,0
2015-07-07T01:01:26.011Z,0
2015-07-07T01:01:44.249Z,0
2015-07-07T01:02:02.483Z,0
2015-07-07T01:02:20.718Z,0
2015-07-07T01:02:38.955Z,0
2015-07-07T01:02:57.189Z,0
2015-07-07T01:03:15.424Z,0
2015-07-07T01:03:33.658Z,0
2015-07-07T01:03:51.911Z,0
2015-07-07T01:04:10.145Z,0
2015-07-07T01:04:28.395Z,0
2015-07-07T01:04:46.632Z,0
2015-07-07T01:05:04.866Z,0
2015-07-07T01:05:23.101Z,0
2015-07-07T01:05:41.335Z,0
2015-07-07T01:05:59.572Z,0
2015-07-07T01:06:17.807Z,0
2015-07-07T01:06:36.041Z,0
2015-07-07T01:06:54.277Z,0
2015-07-07T01:07:12.527Z,0
2015-07-07T01:07:30.746Z,0
2015-07-07T01:07:48.999Z,0
2015-07-07T01:08:07.249Z,0
2015-07-07T01:08:25.484Z,0
2015-07-07T01:08:43.718Z,0
2015-07-07T01:09:01.954Z,0
2015-07-07T01:09:20.189Z,0
2015-07-07T01:09:38.439Z,0
2015-07-07T01:09:56.675Z,0
2015-07-07T01:10:14.909Z,0
2015-07-07T01:10:33.144Z,0
2015-07-07T01:10:51.379Z,0
2015-07-07T01:11:09.614Z,0
2015-07-07T01:11:27.848Z,0
2015-07-07T01:11:46.082Z,0
2015-07-07T01:12:04.320Z,0
2015-07-07T01:12:22.554Z,0
2015-07-07T01:12:40.788Z,0
2015-07-07T01:12:59.025Z,0
2015-07-07T01:13:17.259Z,0
2015-07-07T01:13:35.494Z,0
2015-07-07T01:13:53.730Z,0
2015-07-07T01:14:11.964Z,0
2015-07-07T01:14:30.199Z,0
2015-07-07T01:14:48.433Z,0
2015-07-07T01:15:06.669Z,0
2015-07-07T01:15:24.919Z,0
2015-07-07T01:15:43.154Z,0
2015-07-07T01:16:01.389Z,0
2015-07-07T01:16:19.624Z,0
2015-07-07T01:16:37.858Z,0
2015-07-07T01:16:56.095Z,0
2015-07-07T01:17:14.330Z,0
2015-07-07T01:17:32.580Z,0
2015-07-07T01:17:50.814Z,0
2015-07-07T01:18:09.050Z,0
2015-07-07T01:18:27.285Z,0
2015-07-07T01:18:45.535Z,0
2015-07-07T01:19:03.770Z,0
2015-07-07T01:19:21.989Z,0
2015-07-07T01:19:40.239Z,0
2015-07-07T01:19:58.475Z,0
2015-07-07T01:20:16.710Z,0
2015-07-07T01:20:34.944Z,0
2015-07-07T01:20:53.178Z,0
2015-07-07T01:21:11.430Z,0
2015-07-07T01:21:29.649Z,0
2015-07-07T01:21:47.884Z,0
2015-07-07T01:22:06.120Z,0
2015-07-07T01:22:24.354Z,0
2015-07-07T01:22:42.604Z,0
2015-07-07T01:23:00.839Z,0
2015-07-07T01:23:19.091Z,0
2015-07-07T01:23:37.309Z,0
2015-07-07T01:23:55.544Z,0
2015-07-07T01:24:13.781Z,0
2015-07-07T01:24:32.031Z,0
2015-07-07T01:24:50.266Z,0
2015-07-07T01:25:08.500Z,0
2015-07-07T01:25:26.735Z,0
2015-07-07T01:25:44.970Z,0
2015-07-07T01:26:03.204Z,0
2015-07-07T01:26:21.440Z,0
2015-07-07T01:26:39.675Z,0
2015-07-07T01:26:57.909Z,0
2015-07-07T01:27:16.159Z,0
2015-07-07T01:27:34.411Z,0
2015-07-07T01:27:52.646Z,0
2015-07-07T01:28:10.880Z,0
2015-07-07T01:28:29.116Z,0
2015-07-07T01:28:47.351Z,0
2015-07-07T01:29:05.585Z,0
2015-07-07T01:29:23.837Z,0
2015-07-07T01:29:42.071Z,0
2015-07-07T01:30:00.306Z,0
2015-07-07T01:30:18.540Z,0
2015-07-07T01:30:36.777Z,0
2015-07-07T01:30:55.011Z,0
2015-07-07T01:31:13.261Z,0
2015-07-07T01:31:31.497Z,0
2015-07-07T01:31:49.732Z,0
2015-07-07T01:32:07.982Z,0
2015-07-07T01:32:26.218Z,0
2015-07-07T01:32:44.452Z,0
2015-07-07T01:33:02.687Z,0
2015-07-07T01:33:20.921Z,0
2015-07-07T01:33:39.159Z,0
2015-07-07T01:33:57.409Z,0
2015-07-07T01:34:15.643Z,0
2015-07-07T01:34:33.878Z,0
2015-07-07T01:34:52.113Z,0
2015-07-07T01:35:10.347Z,0
2015-07-07T01:35:28.583Z,0
2015-07-07T01:35:46.818Z,0
2015-07-07T01:36:05.052Z,0
2015-07-07T01:36:23.287Z,0
2015-07-07T01:36:41.523Z,0
2015-07-07T01:36:59.757Z,0
2015-07-07T01:37:17.992Z,0
2015-07-07T01:37:36.227Z,0
2015-07-07T01:37:54.461Z,0
2015-07-07T01:38:12.711Z,0
2015-07-07T01:38:30.949Z,0
2015-07-07T01:38:49.183Z,0
2015-07-07T01:39:07.418Z,0
2015-07-07T01:39:25.652Z,0
2015-07-07T01:39:43.888Z,0
2015-07-07T01:40:02.123Z,0
2015-07-07T01:40:20.357Z,0
2015-07-07T01:40:38.593Z,0
2015-07-07T01:40:56.828Z,0
2015-07-07T01:41:15.062Z,0
2015-07-07T01:41:33.299Z,0
2015-07-07T01:41:51.549Z,0
2015-07-07T01:42:09.767Z,0
2015-07-07T01:42:28.017Z,0
2015-07-07T01:42:46.254Z,0
2015-07-07T01:43:04.488Z,0
2015-07-07T01:43:22.722Z,0
2015-07-07T01:43:40.958Z,0
2015-07-07T01:43:59.208Z,0
2015-07-07T01:44:17.442Z,0
2015-07-07T01:44:35.680Z,0
2015-07-07T01:44:53.914Z,0
2015-07-07T01:45:12.148Z,0
2015-07-07T01:45:30.398Z,0
2015-07-07T01:45:48.649Z,0
2015-07-07T01:46:06.884Z,0
2015-07-07T01:46:25.118Z,0
2015-07-07T01:46:43.355Z,0
2015-07-07T01:47:01.590Z,0
2015-07-07T01:47:19.840Z,0
2015-07-07T01:47:38.074Z,0
2015-07-07T01:47:56.311Z,0
2015-07-07T01:48:14.545Z,0
2015-07-07T01:48:32.779Z,0
2015-07-07T01:48:51.015Z,0
2015-07-07T01:49:09.249Z,0
2015-07-07T01:49:27.483Z,0
2015-07-07T01:49:45.718Z,0
2015-07-07T01:50:03.955Z,0
2015-07-07T01:50:22.205Z,0
2015-07-07T01:50:40.424Z,0
2015-07-07T01:50:58.676Z,0
2015-07-07T01:51:16.910Z,0
2015-07-07T01:51:35.145Z,0
2015-07-07T01:51:53.395Z,0
2015-07-07T01:52:11.631Z,0
2015-07-07T01:52:29.865Z,0
2015-07-07T01:52:48.100Z,0
2015-07-07T01:53:06.336Z,0
2015-07-07T01:53:24.571Z,0
2015-07-07T01:53:42.805Z,0
2015-07-07T01:54:01.039Z,0
2015-07-07T01:54:19.276Z,0
2015-07-07T01:54:37.510Z,0
2015-07-07T01:54:55.744Z,0
2015-07-07T01:55:13.981Z,0
2015-07-07T01:55:32.215Z,0
2015-07-07T01:55:50.450Z,0
2015-07-07T01:56:08.685Z,0
2015-07-07T01:56:26.935Z,0
2015-07-07T01:56:45.169Z,0
2015-07-07T01:57:03.404Z,0
2015-07-07T01:57:21.640Z,0
2015-07-07T01:57:39.874Z,0
2015-07-07T01:57:58.124Z,0
2015-07-07T01:58:16.377Z,0
2015-07-07T01:58:34.612Z,0
2015-07-07T01:58:52.846Z,0
2015-07-07T01:59:11.082Z,0
2015-07-07T01:59:29.332Z,0
2015-07-07T01:59:47.566Z,0
2015-07-07T02:00:05.816Z,0
2015-07-07T02:00:24.037Z,0
2015-07-07T02:00:42.287Z,0
2015-07-07T02:01:00.521Z,0
2015-07-07T02:01:18.757Z,0
2015-07-07T02:01:36.992Z,0
2015-07-07T02:01:55.226Z,0
2015-07-07T02:02:13.463Z,0
2015-07-07T02:02:31.713Z,0
2015-07-07T02:02:49.931Z,0
2015-07-07T02:03:08.181Z,0
2015-07-07T02:03:26.418Z,0
2015-07-07T02:03:44.652Z,0
2015-07-07T02:04:02.886Z,0
2015-07-07T02:04:21.123Z,0
2015-07-07T02:04:39.373Z,0
2015-07-07T02:04:57.607Z,0
2015-07-07T02:05:15.844Z,0
2015-07-07T02:05:34.078Z,1
2015-07-07T02:05:52.312Z,0
2015-07-07T02:06:10.547Z,1
2015-07-07T02:06:28.783Z,1
2015-07-07T02:06:47.033Z,1
2015-07-07T02:07:05.252Z,1
2015-07-07T02:07:23.504Z,1
2015-07-07T02:07:41.738Z,1
2015-07-07T02:07:59.973Z,1
2015-07-07T02:08:18.240Z,1
2015-07-07T02:08:36.459Z,1
2015-07-07T02:08:54.693Z,1
2015-07-07T02:09:12.928Z,1
2015-07-07T02:09:31.164Z,2
2015-07-07T02:09:49.398Z,2
2015-07-07T02:10:07.633Z,1
2015-07-07T02:10:25.869Z,2
2015-07-07T02:10:44.104Z,2
2015-07-07T02:11:02.338Z,2
2015-07-07T02:11:20.572Z,2
2015-07-07T02:11:38.824Z,2
2015-07-07T02:11:57.043Z,3
2015-07-07T02:12:15.293Z,3
2015-07-07T02:12:33.529Z,3
2015-07-07T02:12:51.764Z,3
2015-07-07T02:13:09.998Z,3
2015-07-07T02:13:28.235Z,3
2015-07-07T02:13:46.485Z,4
2015-07-07T02:14:04.719Z,4
2015-07-07T02:14:22.953Z,4
2015-07-07T02:14:41.189Z,4
2015-07-07T02:14:59.423Z,4
2015-07-07T02:15:17.657Z,5
2015-07-07T02:15:35.895Z,5
2015-07-07T02:15:54.129Z,5
2015-07-07T02:16:12.364Z,5
2015-07-07T02:16:30.600Z,5
2015-07-07T02:16:48.834Z,6
2015-07-07T02:17:07.069Z,6
2015-07-07T02:17:25.303Z,6
2015-07-07T02:17:43.538Z,6
2015-07-07T02:18:01.773Z,6
2015-07-07T02:18:20.007Z,7
2015-07-07T02:18:38.260Z,7
2015-07-07T02:18:56.479Z,7
2015-07-07T02:19:14.729Z,8
2015-07-07T02:19:32.965Z,8
2015-07-07T02:19:51.200Z,8
2015-07-07T02:20:09.434Z,9
2015-07-07T02:20:27.668Z,9
2015-07-07T02:20:45.904Z,9
2015-07-07T02:21:04.154Z,10
2015-07-07T02:21:22.388Z,10
2015-07-07T02:21:40.626Z,10
2015-07-07T02:21:58.860Z,11
2015-07-07T02:22:17.094Z,11
2015-07-07T02:22:35.346Z,12
2015-07-07T02:22:53.581Z,12
2015-07-07T02:23:11.815Z,13
2015-07-07T02:23:30.049Z,13
2015-07-07T02:23:48.285Z,14
2015-07-07T02:24:06.535Z,14
2015-07-07T02:24:24.754Z,15
2015-07-07T02:24:43.007Z,15
2015-07-07T02:25:01.241Z,16
2015-07-07T02:25:19.475Z,16
2015-07-07T02:25:37.711Z,17
2015-07-07T02:25:55.945Z,17
2015-07-07T02:26:14.195Z,18
2015-07-07T02:26:32.445Z,19
2015-07-07T02:26:50.682Z,19
2015-07-07T02:27:08.917Z,20
2015-07-07T02:27:27.167Z,21
2015-07-07T02:27:45.402Z,21
2015-07-07T02:28:03.637Z,22
2015-07-07T02:28:21.871Z,23
2015-07-07T02:28:40.105Z,24
2015-07-07T02:28:58.342Z,24
2015-07-07T02:29:16.576Z,25
2015-07-07T02:29:34.826Z,26
2015-07-07T02:29:52.906Z,27
2015-07-07T02:30:10.984Z,28
2015-07-07T02:30:29.219Z,28
2015-07-07T02:30:47.469Z,29
2015-07-07T02:31:05.705Z,30
2015-07-07T02:31:23.955Z,31
2015-07-07T02:31:42.189Z,32
2015-07-07T02:32:00.426Z,33
2015-07-07T02:32:18.660Z,34
2015-07-07T02:32:36.895Z,35
2015-07-07T02:32:55.145Z,36
2015-07-07T02:33:13.381Z,37
2015-07-07T02:33:31.631Z,38
2015-07-07T02:33:49.865Z,39
2015-07-07T02:34:08.103Z,40
2015-07-07T02:34:26.337Z,41
2015-07-07T02:34:44.571Z,43
2015-07-07T02:35:02.822Z,44
2015-07-07T02:35:21.057Z,45
2015-07-07T02:35:39.291Z,46
2015-07-07T02:35:57.526Z,47
2015-07-07T02:36:15.778Z,49
2015-07-07T02:36:34.012Z,50
2015-07-07T02:36:52.246Z,52
2015-07-07T02:37:10.483Z,53
2015-07-07T02:37:28.717Z,54
2015-07-07T02:37:46.951Z,56
2015-07-07T02:38:05.203Z,57
2015-07-07T02:38:23.438Z,59
2015-07-07T02:38:41.672Z,61
2015-07-07T02:38:59.907Z,62
2015-07-07T02:39:18.159Z,64
2015-07-07T02:39:36.393Z,65
2015-07-07T02:39:54.627Z,67
2015-07-07T02:40:12.879Z,68
2015-07-07T02:40:31.114Z,70
2015-07-07T02:40:49.348Z,72
2015-07-07T02:41:07.584Z,74
2015-07-07T02:41:25.819Z,75
2015-07-07T02:41:44.053Z,77
2015-07-07T02:42:02.303Z,78
2015-07-07T02:42:20.540Z,80
2015-07-07T02:42:38.774Z,82
2015-07-07T02:42:57.008Z,83
2015-07-07T02:43:15.260Z,85
2015-07-07T02:43:33.510Z,87
2015-07-07T02:43:51.760Z,89
2015-07-07T02:44:09.981Z,90
2015-07-07T02:44:28.215Z,92
2015-07-07T02:44:46.450Z,94
2015-07-07T02:45:04.684Z,95
2015-07-07T02:45:22.935Z,97
2015-07-07T02:45:41.154Z,99
2015-07-07T02:45:59.404Z,101
2015-07-07T02:46:17.641Z,102
2015-07-07T02:46:35.891Z,104
2015-07-07T02:46:54.126Z,106
2015-07-07T02:47:12.362Z,108
2015-07-07T02:47:30.628Z,109
2015-07-07T02:47:48.846Z,111
2015-07-07T02:48:07.081Z,113
2015-07-07T02:48:25.317Z,115
2015-07-07T02:48:43.567Z,116
2015-07-07T02:49:01.802Z,118
2015-07-07T02:49:20.037Z,120
2015-07-07T02:49:38.271Z,122
2015-07-07T02:49:56.506Z,124
2015-07-07T02:50:14.756Z,126
2015-07-07T02:50:32.993Z,127
2015-07-07T02:50:51.243Z,129
2015-07-07T02:51:09.462Z,131
2015-07-07T02:51:27.698Z,132
2015-07-07T02:51:45.948Z,134
2015-07-07T02:52:04.183Z,135
2015-07-07T02:52:22.417Z,137
2015-07-07T02:52:40.669Z,139
2015-07-07T02:52:58.919Z,141
2015-07-07T02:53:17.138Z,142
2015-07-07T02:53:35.374Z,144
2015-07-07T02:53:53.624Z,146
2015-07-07T02:54:11.858Z,147
2015-07-07T02:54:30.108Z,149
2015-07-07T02:54:48.345Z,151
2015-07-07T02:55:06.579Z,152
2015-07-07T02:55:24.814Z,154
2015-07-07T02:55:43.050Z,155
2015-07-07T02:56:01.300Z,157
2015-07-07T02:56:19.534Z,158
2015-07-07T02:56:37.771Z,160
2015-07-07T02:56:56.005Z,162
2015-07-07T02:57:14.255Z,163
2015-07-07T02:57:32.489Z,165
2015-07-07T02:57:50.725Z,166
2015-07-07T02:58:08.959Z,167
2015-07-07T02:58:27.209Z,169
2015-07-07T02:58:45.447Z,170
2015-07-07T02:59:03.681Z,172
2015-07-07T02:59:21.931Z,174
2015-07-07T02:59:40.183Z,175
2015-07-07T02:59:58.402Z,176
2015-07-07T03:00:16.652Z,178
2015-07-07T03:00:34.886Z,179
2015-07-07T03:00:53.122Z,181
2015-07-07T03:01:11.357Z,183
2015-07-07T03:01:29.591Z,184
2015-07-07T03:01:47.843Z,186
2015-07-07T03:02:06.078Z,187
2015-07-07T03:02:24.312Z,189
2015-07-07T03:02:42.548Z,191
2015-07-07T03:03:00.798Z,192
2015-07-07T03:03:19.033Z,194
2015-07-07T03:03:37.267Z,196
2015-07-07T03:03:55.518Z,197
2015-07-07T03:04:13.752Z,199
2015-07-07T03:04:32.002Z,201
2015-07-07T03:04:50.443Z,203
2015-07-07T03:05:08.474Z,203
2015-07-07T03:05:26.709Z,205
2015-07-07T03:05:44.960Z,207
2015-07-07T03:06:03.194Z,208
2015-07-07T03:06:21.444Z,209
2015-07-07T03:06:39.678Z,210
2015-07-07T03:06:57.931Z,212
2015-07-07T03:07:16.166Z,213
2015-07-07T03:07:34.400Z,214
2015-07-07T03:07:52.652Z,215
2015-07-07T03:08:10.886Z,217
2015-07-07T03:08:29.121Z,218
2015-07-07T03:08:47.355Z,219
2015-07-07T03:09:05.592Z,221
2015-07-07T03:09:23.842Z,222
2015-07-07T03:09:42.076Z,223
2015-07-07T03:10:00.311Z,225
2015-07-07T03:10:18.546Z,226
2015-07-07T03:10:36.796Z,229
2015-07-07T03:10:55.030Z,230
2015-07-07T03:11:13.267Z,232
2015-07-07T03:11:31.502Z,234
2015-07-07T03:11:49.752Z,236
2015-07-07T03:12:07.987Z,238
2015-07-07T03:12:26.237Z,240
2015-07-07T03:12:44.472Z,242
2015-07-07T03:13:02.706Z,242
2015-07-07T03:13:20.959Z,244
2015-07-07T03:13:39.193Z,246
2015-07-07T03:13:57.443Z,246
2015-07-07T03:14:15.679Z,248
2015-07-07T03:14:33.913Z,249
2015-07-07T03:14:52.147Z,251
2015-07-07T03:15:10.384Z,252
2015-07-07T03:15:28.618Z,253
2015-07-07T03:15:46.868Z,254
2015-07-07T03:16:05.103Z,256
2015-07-07T03:16:23.340Z,257
2015-07-07T03:16:41.574Z,259
2015-07-07T03:16:59.824Z,260
2015-07-07T03:17:18.075Z,261
2015-07-07T03:17:36.310Z,261
2015-07-07T03:17:54.544Z,264
2015-07-07T03:18:12.796Z,265
2015-07-07T03:18:31.030Z,267
2015-07-07T03:18:49.280Z,268
2015-07-07T03:19:07.515Z,269
2015-07-07T03:19:25.751Z,270
2015-07-07T03:19:44.001Z,270
2015-07-07T03:20:02.236Z,271
2015-07-07T03:20:20.489Z,273
2015-07-07T03:20:38.723Z,274
2015-07-07T03:20:56.957Z,275
2015-07-07T03:21:15.193Z,275
2015-07-07T03:21:33.443Z,276
2015-07-07T03:21:51.677Z,278
2015-07-07T03:22:09.911Z,277
2015-07-07T03:22:28.148Z,280
2015-07-07T03:22:46.382Z,280
2015-07-07T03:23:04.617Z,281
2015-07-07T03:23:22.853Z,282
2015-07-07T03:23:41.103Z,284
2015-07-07T03:23:59.337Z,284
2015-07-07T03:24:17.589Z,286
2015-07-07T03:24:35.824Z,287
2015-07-07T03:24:54.058Z,288
2015-07-07T03:25:12.292Z,289
2015-07-07T03:25:30.529Z,289
2015-07-07T03:25:48.779Z,291
2015-07-07T03:26:07.013Z,292
2015-07-07T03:26:25.249Z,292
2015-07-07T03:26:43.499Z,295
2015-07-07T03:27:01.733Z,295
2015-07-07T03:27:19.970Z,296
2015-07-07T03:27:38.205Z,298
2015-07-07T03:27:56.439Z,300
2015-07-07T03:28:14.673Z,301
2015-07-07T03:28:32.924Z,301
2015-07-07T03:28:51.174Z,302
2015-07-07T03:29:09.409Z,303
2015-07-07T03:29:27.646Z,304
2015-07-07T03:29:45.881Z,305
2015-07-07T03:30:04.131Z,307
2015-07-07T03:30:22.349Z,307
2015-07-07T03:30:40.601Z,308
2015-07-07T03:30:58.836Z,309
2015-07-07T03:31:17.070Z,309
2015-07-07T03:31:35.306Z,311
2015-07-07T03:31:53.556Z,310
2015-07-07T03:32:11.791Z,311
2015-07-07T03:32:30.025Z,312
2015-07-07T03:32:48.277Z,312
2015-07-07T03:33:06.512Z,313
2015-07-07T03:33:24.746Z,313
2015-07-07T03:33:42.998Z,314
2015-07-07T03:34:01.232Z,315
2015-07-07T03:34:19.482Z,316
2015-07-07T03:34:37.717Z,316
2015-07-07T03:34:55.953Z,317
2015-07-07T03:35:14.187Z,317
2015-07-07T03:35:32.422Z,318
2015-07-07T03:35:50.674Z,318
2015-07-07T03:36:08.908Z,320
2015-07-07T03:36:27.158Z,321
2015-07-07T03:36:45.395Z,322
2015-07-07T03:37:03.629Z,323
2015-07-07T03:37:21.863Z,323
2015-07-07T03:37:40.113Z,324
2015-07-07T03:37:58.350Z,325
2015-07-07T03:38:16.584Z,324
2015-07-07T03:38:34.818Z,323
2015-07-07T03:38:53.055Z,324
2015-07-07T03:39:11.320Z,326
2015-07-07T03:39:29.555Z,325
2015-07-07T03:39:47.791Z,327
2015-07-07T03:40:06.026Z,327
2015-07-07T03:40:24.291Z,328
2015-07-07T03:40:42.510Z,329
2015-07-07T03:41:00.762Z,331
2015-07-07T03:41:18.996Z,331
2015-07-07T03:41:37.231Z,330
2015-07-07T03:41:55.466Z,332
2015-07-07T03:42:13.700Z,331
2015-07-07T03:42:31.950Z,333
2015-07-07T03:42:50.187Z,332
2015-07-07T03:43:08.421Z,334
2015-07-07T03:43:26.656Z,332
2015-07-07T03:43:44.906Z,332
2015-07-07T03:44:03.142Z,332
2015-07-07T03:44:21.376Z,333
2015-07-07T03:44:39.626Z,334
2015-07-07T03:44:57.863Z,333
2015-07-07T03:45:16.097Z,333
2015-07-07T03:45:34.347Z,335
2015-07-07T03:45:52.583Z,334
2015-07-07T03:46:10.833Z,337
2015-07-07T03:46:29.068Z,337
2015-07-07T03:46:47.302Z,339
2015-07-07T03:47:05.554Z,340
2015-07-07T03:47:23.804Z,341
2015-07-07T03:47:42.039Z,342
2015-07-07T03:48:00.275Z,342
2015-07-07T03:48:18.509Z,341
2015-07-07T03:48:36.759Z,343
2015-07-07T03:48:54.996Z,344
2015-07-07T03:49:13.230Z,343
2015-07-07T03:49:31.480Z,346
2015-07-07T03:49:49.714Z,347
2015-07-07T03:50:07.951Z,345
2015-07-07T03:50:26.185Z,345
2015-07-07T03:50:44.420Z,346
2015-07-07T03:51:02.656Z,348
2015-07-07T03:51:20.906Z,348
2015-07-07T03:51:39.140Z,349
2015-07-07T03:51:57.375Z,348
2015-07-07T03:52:15.611Z,352
2015-07-07T03:52:33.845Z,350
2015-07-07T03:52:52.095Z,352
2015-07-07T03:53:10.332Z,351
2015-07-07T03:53:28.566Z,352
2015-07-07T03:53:46.816Z,355
2015-07-07T03:54:05.051Z,355
2015-07-07T03:54:23.288Z,355
2015-07-07T03:54:41.538Z,356
2015-07-07T03:54:59.772Z,356
2015-07-07T03:55:18.023Z,356
2015-07-07T03:55:36.258Z,356
2015-07-07T03:55:54.492Z,358
2015-07-07T03:56:12.726Z,355
2015-07-07T03:56:30.964Z,357
2015-07-07T03:56:49.198Z,356
2015-07-07T03:57:07.448Z,357
2015-07-07T03:57:25.699Z,357
2015-07-07T03:57:43.934Z,357
2015-07-07T03:58:02.168Z,357
2015-07-07T03:58:20.420Z,356
2015-07-07T03:58:38.654Z,359
2015-07-07T03:58:56.889Z,358
2015-07-07T03:59:15.139Z,357
2015-07-07T03:59:32.719Z,358
2015-07-07T03:59:50.953Z,360
2015-07-07T04:00:09.203Z,359
2015-07-07T04:00:27.440Z,358
2015-07-07T04:00:45.690Z,360
2015-07-07T04:01:03.940Z,357
2015-07-07T04:01:22.176Z,358
2015-07-07T04:01:40.395Z,360
2015-07-07T04:01:58.629Z,359
2015-07-07T04:02:16.863Z,358
2015-07-07T04:02:35.100Z,360
2015-07-07T04:02:53.350Z,359
2015-07-07T04:03:11.600Z,360
2015-07-07T04:03:29.836Z,361
2015-07-07T04:03:47.914Z,358
2015-07-07T04:04:06.164Z,360
2015-07-07T04:04:24.401Z,361
2015-07-07T04:04:42.635Z,361
2015-07-07T04:05:00.869Z,362
2015-07-07T04:05:19.119Z,363
2015-07-07T04:05:37.356Z,361
2015-07-07T04:05:55.590Z,361
2015-07-07T04:06:13.840Z,361
2015-07-07T04:06:32.077Z,362
2015-07-07T04:06:50.311Z,361
2015-07-07T04:07:08.545Z,361
2015-07-07T04:07:26.782Z,362
2015-07-07T04:07:44.875Z,362
2015-07-07T04:08:03.110Z,364
2015-07-07T04:08:21.344Z,363
2015-07-07T04:08:39.596Z,364
2015-07-07T04:08:57.831Z,364
2015-07-07T04:09:16.065Z,363
2015-07-07T04:09:34.301Z,363
2015-07-07T04:09:52.536Z,363
2015-07-07T04:10:10.786Z,364
2015-07-07T04:10:29.020Z,366
2015-07-07T04:10:47.256Z,365
2015-07-07T04:11:05.491Z,364
2015-07-07T04:11:23.725Z,365
2015-07-07T04:11:41.962Z,365
2015-07-07T04:12:00.212Z,368
2015-07-07T04:12:18.446Z,368
2015-07-07T04:12:36.680Z,368
2015-07-07T04:12:54.932Z,368
2015-07-07T04:13:13.167Z,371
2015-07-07T04:13:31.401Z,370
2015-07-07T04:13:49.653Z,369
2015-07-07T04:14:07.887Z,372
2015-07-07T04:14:26.122Z,371
2015-07-07T04:14:44.358Z,370
2015-07-07T04:15:02.608Z,371
2015-07-07T04:15:20.843Z,373
2015-07-07T04:15:39.093Z,373
2015-07-07T04:15:57.329Z,372
2015-07-07T04:16:15.563Z,374
2015-07-07T04:16:33.813Z,373
2015-07-07T04:16:52.065Z,373
2015-07-07T04:17:10.284Z,375
2015-07-07T04:17:28.518Z,374
2015-07-07T04:17:46.755Z,375
2015-07-07T04:18:05.005Z,376
2015-07-07T04:18:23.239Z,377
2015-07-07T04:18:41.474Z,378
2015-07-07T04:18:59.726Z,377
2015-07-07T04:19:17.960Z,378
2015-07-07T04:19:36.194Z,379
2015-07-07T04:19:54.431Z,379
2015-07-07T04:20:12.681Z,379
2015-07-07T04:20:30.915Z,380
2015-07-07T04:20:49.150Z,381
2015-07-07T04:21:07.416Z,383
2015-07-07T04:21:25.635Z,382